sensor_id;sensor_type;location;lat;lon;timestamp;pressure;altitude;pressure_sealevel;temperature;humidity
2785;BME280;57944;48.722;9.316;2022-11-15T00:01:42;97877.84;;;7.89;100.00
2785;BME280;57944;48.722;9.316;2022-11-15T00:04:31;97874.16;;;7.92;100.00
2785;BME280;57944;48.722;9.316;2022-11-15T00:07:19;97877.44;;;8.07;100.00
2785;BME280;57944;48.722;9.316;2022-11-15T00:10:29;97883.22;;;8.16;100.00
2785;BME280;57944;48.722;9.316;2022-11-15T00:13:20;97881.59;;;8.08;100.00
2785;BME280;57944;48.722;9.316;2022-11-15T00:16:09;97879.72;;;8.02;100.00
2785;BME280;57944;48.722;9.316;2022-11-15T00:18:58;97885.34;;;7.97;100.00
2785;BME280;57944;48.722;9.316;2022-11-15T00:21:47;97885.34;;;7.97;100.00
2785;BME280;57944;48.722;9.316;2022-11-15T00:24:36;97886.50;;;7.95;100.00
2785;BME280;57944;48.722;9.316;2022-11-15T00:27:24;97879.50;;;7.97;100.00
2785;BME280;57944;48.722;9.316;2022-11-15T00:30:16;97876.91;;;7.75;100.00
2785;BME280;57944;48.722;9.316;2022-11-15T00:33:06;97876.53;;;7.78;100.00
2785;BME280;57944;48.722;9.316;2022-11-15T00:36:00;97871.53;;;7.85;100.00
2785;BME280;57944;48.722;9.316;2022-11-15T00:38:50;97872.34;;;7.71;100.00
2785;BME280;57944;48.722;9.316;2022-11-15T00:41:38;97861.69;;;7.60;100.00
2785;BME280;57944;48.722;9.316;2022-11-15T00:44:28;97864.28;;;7.67;100.00
2785;BME280;57944;48.722;9.316;2022-11-15T00:47:19;97857.84;;;7.50;100.00
2785;BME280;57944;48.722;9.316;2022-11-15T00:50:08;97864.63;;;7.34;100.00
2785;BME280;57944;48.722;9.316;2022-11-15T00:53:00;97852.94;;;7.33;100.00
2785;BME280;57944;48.722;9.316;2022-11-15T00:55:48;97852.03;;;7.26;100.00
2785;BME280;57944;48.722;9.316;2022-11-15T00:58:37;97847.66;;;7.20;100.00
2785;BME280;57944;48.722;9.316;2022-11-15T01:01:26;97839.78;;;7.15;100.00
2785;BME280;57944;48.722;9.316;2022-11-15T01:04:17;97844.06;;;7.00;100.00
2785;BME280;57944;48.722;9.316;2022-11-15T01:07:06;97839.41;;;6.88;100.00
2785;BME280;57944;48.722;9.316;2022-11-15T01:09:54;97836.41;;;6.85;100.00
2785;BME280;57944;48.722;9.316;2022-11-15T01:12:43;97831.31;;;6.70;100.00
2785;BME280;57944;48.722;9.316;2022-11-15T01:15:32;97833.75;;;6.63;100.00
2785;BME280;57944;48.722;9.316;2022-11-15T01:18:20;97825.63;;;6.68;100.00
2785;BME280;57944;48.722;9.316;2022-11-15T01:21:18;97829.06;;;6.75;100.00
2785;BME280;57944;48.722;9.316;2022-11-15T01:24:07;97822.50;;;6.66;100.00
2785;BME280;57944;48.722;9.316;2022-11-15T01:26:57;97823.78;;;6.62;100.00
2785;BME280;57944;48.722;9.316;2022-11-15T01:29:46;97815.91;;;6.57;100.00
2785;BME280;57944;48.722;9.316;2022-11-15T01:32:34;97814.69;;;6.53;100.00
2785;BME280;57944;48.722;9.316;2022-11-15T01:35:24;97811.06;;;6.24;100.00
2785;BME280;57944;48.722;9.316;2022-11-15T01:38:15;97817.03;;;6.08;100.00
2785;BME280;57944;48.722;9.316;2022-11-15T01:41:04;97813.75;;;5.99;100.00
2785;BME280;57944;48.722;9.316;2022-11-15T01:43:56;97810.28;;;5.92;100.00
2785;BME280;57944;48.722;9.316;2022-11-15T01:46:47;97808.72;;;5.99;100.00
2785;BME280;57944;48.722;9.316;2022-11-15T01:49:43;97812.94;;;5.99;100.00
2785;BME280;57944;48.722;9.316;2022-11-15T01:52:35;97809.03;;;5.96;100.00
2785;BME280;57944;48.722;9.316;2022-11-15T01:55:29;97809.19;;;5.87;100.00
2785;BME280;57944;48.722;9.316;2022-11-15T01:58:17;97806.53;;;5.88;100.00
2785;BME280;57944;48.722;9.316;2022-11-15T02:01:06;97800.53;;;5.81;100.00
2785;BME280;57944;48.722;9.316;2022-11-15T02:03:59;97803.09;;;5.73;100.00
2785;BME280;57944;48.722;9.316;2022-11-15T02:06:49;97793.03;;;5.65;100.00
2785;BME280;57944;48.722;9.316;2022-11-15T02:09:39;97795.88;;;5.62;100.00
2785;BME280;57944;48.722;9.316;2022-11-15T02:12:31;97794.06;;;5.47;100.00
2785;BME280;57944;48.722;9.316;2022-11-15T02:15:20;97783.25;;;5.62;100.00
2785;BME280;57944;48.722;9.316;2022-11-15T02:18:17;97786.06;;;5.67;100.00
2785;BME280;57944;48.722;9.316;2022-11-15T02:21:21;97786.81;;;5.75;100.00
2785;BME280;57944;48.722;9.316;2022-11-15T02:31:36;97775.56;;;5.47;100.00
2785;BME280;57944;48.722;9.316;2022-11-15T02:34:42;97777.81;;;5.42;100.00
2785;BME280;57944;48.722;9.316;2022-11-15T02:37:43;97773.50;;;5.50;100.00
2785;BME280;57944;48.722;9.316;2022-11-15T02:40:41;97784.31;;;5.28;100.00
2785;BME280;57944;48.722;9.316;2022-11-15T02:43:41;97768.88;;;5.14;100.00
2785;BME280;57944;48.722;9.316;2022-11-15T02:46:53;97767.41;;;5.28;100.00
2785;BME280;57944;48.722;9.316;2022-11-15T02:50:02;97772.00;;;5.33;100.00
2785;BME280;57944;48.722;9.316;2022-11-15T02:52:55;97763.63;;;5.32;100.00
2785;BME280;57944;48.722;9.316;2022-11-15T02:55:50;97759.38;;;5.25;100.00
2785;BME280;57944;48.722;9.316;2022-11-15T02:59:03;97754.06;;;5.11;100.00
2785;BME280;57944;48.722;9.316;2022-11-15T03:02:18;97748.22;;;5.11;100.00
2785;BME280;57944;48.722;9.316;2022-11-15T03:05:21;97751.19;;;5.23;100.00
2785;BME280;57944;48.722;9.316;2022-11-15T03:08:18;97749.59;;;5.22;100.00
2785;BME280;57944;48.722;9.316;2022-11-15T03:11:13;97748.03;;;5.12;100.00
2785;BME280;57944;48.722;9.316;2022-11-15T03:14:19;97750.25;;;5.15;100.00
2785;BME280;57944;48.722;9.316;2022-11-15T03:17:19;97754.66;;;5.22;100.00
2785;BME280;57944;48.722;9.316;2022-11-15T03:20:13;97751.59;;;5.34;100.00
2785;BME280;57944;48.722;9.316;2022-11-15T03:23:08;97741.22;;;5.29;100.00
2785;BME280;57944;48.722;9.316;2022-11-15T03:26:00;97736.97;;;5.22;100.00
2785;BME280;57944;48.722;9.316;2022-11-15T03:28:54;97737.88;;;5.29;100.00
2785;BME280;57944;48.722;9.316;2022-11-15T03:31:49;97731.56;;;5.33;100.00
2785;BME280;57944;48.722;9.316;2022-11-15T03:34:49;97723.09;;;5.18;100.00
2785;BME280;57944;48.722;9.316;2022-11-15T03:37:45;97726.63;;;4.92;100.00
2785;BME280;57944;48.722;9.316;2022-11-15T03:40:40;97722.69;;;4.98;100.00
2785;BME280;57944;48.722;9.316;2022-11-15T03:43:36;97724.41;;;4.97;100.00
2785;BME280;57944;48.722;9.316;2022-11-15T03:46:32;97719.81;;;5.01;100.00
2785;BME280;57944;48.722;9.316;2022-11-15T03:49:28;97714.34;;;4.89;100.00
2785;BME280;57944;48.722;9.316;2022-11-15T03:52:22;97714.31;;;4.97;100.00
2785;BME280;57944;48.722;9.316;2022-11-15T03:55:15;97710.13;;;5.21;100.00
2785;BME280;57944;48.722;9.316;2022-11-15T03:58:04;97710.56;;;4.85;100.00
2785;BME280;57944;48.722;9.316;2022-11-15T04:00:53;97707.72;;;4.88;100.00
2785;BME280;57944;48.722;9.316;2022-11-15T04:03:42;97704.53;;;5.02;100.00
2785;BME280;57944;48.722;9.316;2022-11-15T04:06:31;97705.66;;;4.91;100.00
2785;BME280;57944;48.722;9.316;2022-11-15T04:09:22;97703.91;;;4.92;100.00
2785;BME280;57944;48.722;9.316;2022-11-15T04:12:11;97708.66;;;4.87;100.00
2785;BME280;57944;48.722;9.316;2022-11-15T04:15:19;97706.47;;;4.84;100.00
2785;BME280;57944;48.722;9.316;2022-11-15T04:18:08;97691.59;;;4.97;100.00
2785;BME280;57944;48.722;9.316;2022-11-15T04:20:56;97695.06;;;4.96;100.00
2785;BME280;57944;48.722;9.316;2022-11-15T04:23:58;97694.81;;;4.75;100.00
2785;BME280;57944;48.722;9.316;2022-11-15T04:27:04;97706.34;;;4.69;100.00
2785;BME280;57944;48.722;9.316;2022-11-15T04:29:53;97705.25;;;4.72;100.00
2785;BME280;57944;48.722;9.316;2022-11-15T04:32:41;97702.09;;;4.61;100.00
2785;BME280;57944;48.722;9.316;2022-11-15T04:35:30;97701.31;;;4.53;100.00
2785;BME280;57944;48.722;9.316;2022-11-15T04:38:19;97695.81;;;4.57;100.00
2785;BME280;57944;48.722;9.316;2022-11-15T04:41:08;97699.88;;;4.66;100.00
2785;BME280;57944;48.722;9.316;2022-11-15T04:43:59;97691.53;;;4.58;100.00
2785;BME280;57944;48.722;9.316;2022-11-15T04:46:48;97694.50;;;4.69;100.00
2785;BME280;57944;48.722;9.316;2022-11-15T04:49:36;97688.75;;;4.92;100.00
2785;BME280;57944;48.722;9.316;2022-11-15T04:52:25;97685.94;;;4.87;100.00
2785;BME280;57944;48.722;9.316;2022-11-15T04:55:13;97691.97;;;4.69;100.00
2785;BME280;57944;48.722;9.316;2022-11-15T04:58:02;97689.13;;;4.73;100.00
2785;BME280;57944;48.722;9.316;2022-11-15T05:00:54;97684.25;;;4.71;100.00
2785;BME280;57944;48.722;9.316;2022-11-15T05:03:44;97675.63;;;4.57;100.00
2785;BME280;57944;48.722;9.316;2022-11-15T05:06:48;97674.53;;;4.43;100.00
2785;BME280;57944;48.722;9.316;2022-11-15T05:09:37;97675.00;;;4.47;100.00
2785;BME280;57944;48.722;9.316;2022-11-15T05:12:25;97675.59;;;4.65;100.00
2785;BME280;57944;48.722;9.316;2022-11-15T05:15:14;97673.63;;;4.92;100.00
2785;BME280;57944;48.722;9.316;2022-11-15T05:18:05;97674.09;;;4.87;100.00
2785;BME280;57944;48.722;9.316;2022-11-15T05:20:54;97673.97;;;4.81;100.00
2785;BME280;57944;48.722;9.316;2022-11-15T05:23:43;97667.09;;;4.58;100.00
2785;BME280;57944;48.722;9.316;2022-11-15T05:26:32;97663.03;;;4.41;100.00
2785;BME280;57944;48.722;9.316;2022-11-15T05:29:22;97673.59;;;4.36;100.00
2785;BME280;57944;48.722;9.316;2022-11-15T05:32:12;97681.78;;;4.38;100.00
2785;BME280;57944;48.722;9.316;2022-11-15T05:35:07;97680.78;;;4.64;100.00
2785;BME280;57944;48.722;9.316;2022-11-15T05:37:57;97669.91;;;4.63;100.00
2785;BME280;57944;48.722;9.316;2022-11-15T05:40:46;97673.44;;;4.46;100.00
2785;BME280;57944;48.722;9.316;2022-11-15T05:43:37;97666.78;;;4.53;100.00
2785;BME280;57944;48.722;9.316;2022-11-15T05:46:29;97660.19;;;4.44;100.00
2785;BME280;57944;48.722;9.316;2022-11-15T05:49:23;97655.25;;;4.51;100.00
2785;BME280;57944;48.722;9.316;2022-11-15T05:52:20;97662.06;;;4.42;100.00
2785;BME280;57944;48.722;9.316;2022-11-15T05:55:10;97652.16;;;4.24;100.00
2785;BME280;57944;48.722;9.316;2022-11-15T05:58:00;97653.41;;;4.20;100.00
2785;BME280;57944;48.722;9.316;2022-11-15T06:00:49;97650.75;;;4.05;100.00
2785;BME280;57944;48.722;9.316;2022-11-15T06:03:38;97660.84;;;3.97;100.00
2785;BME280;57944;48.722;9.316;2022-11-15T06:06:28;97657.69;;;4.03;100.00
2785;BME280;57944;48.722;9.316;2022-11-15T06:09:19;97659.75;;;4.24;100.00
2785;BME280;57944;48.722;9.316;2022-11-15T06:12:08;97653.91;;;4.23;100.00
2785;BME280;57944;48.722;9.316;2022-11-15T06:14:56;97653.59;;;4.18;100.00
2785;BME280;57944;48.722;9.316;2022-11-15T06:17:45;97655.00;;;4.21;100.00
2785;BME280;57944;48.722;9.316;2022-11-15T06:20:34;97656.72;;;4.29;100.00
2785;BME280;57944;48.722;9.316;2022-11-15T06:23:23;97661.75;;;4.45;100.00
2785;BME280;57944;48.722;9.316;2022-11-15T06:26:14;97663.50;;;4.36;100.00
2785;BME280;57944;48.722;9.316;2022-11-15T06:29:04;97663.97;;;4.32;100.00
2785;BME280;57944;48.722;9.316;2022-11-15T06:31:54;97673.44;;;4.30;100.00
2785;BME280;57944;48.722;9.316;2022-11-15T06:34:42;97663.19;;;4.23;100.00
2785;BME280;57944;48.722;9.316;2022-11-15T06:37:31;97664.00;;;4.07;100.00
2785;BME280;57944;48.722;9.316;2022-11-15T06:40:19;97662.91;;;4.10;100.00
2785;BME280;57944;48.722;9.316;2022-11-15T06:43:11;97669.03;;;4.23;100.00
2785;BME280;57944;48.722;9.316;2022-11-15T06:46:00;97669.03;;;4.23;100.00
2785;BME280;57944;48.722;9.316;2022-11-15T06:48:51;97659.75;;;4.16;100.00
2785;BME280;57944;48.722;9.316;2022-11-15T06:51:39;97667.44;;;4.14;100.00
2785;BME280;57944;48.722;9.316;2022-11-15T06:54:28;97665.25;;;4.11;100.00
2785;BME280;57944;48.722;9.316;2022-11-15T06:57:17;97669.38;;;4.04;100.00
2785;BME280;57944;48.722;9.316;2022-11-15T07:00:11;97669.03;;;4.23;100.00
2785;BME280;57944;48.722;9.316;2022-11-15T07:03:01;97667.75;;;4.36;100.00
2785;BME280;57944;48.722;9.316;2022-11-15T07:05:54;97671.06;;;4.44;100.00
2785;BME280;57944;48.722;9.316;2022-11-15T07:08:52;97677.78;;;4.68;100.00
2785;BME280;57944;48.722;9.316;2022-11-15T07:11:41;97668.00;;;4.74;100.00
2785;BME280;57944;48.722;9.316;2022-11-15T07:14:29;97673.19;;;4.72;100.00
2785;BME280;57944;48.722;9.316;2022-11-15T07:17:21;97668.03;;;4.65;100.00
2785;BME280;57944;48.722;9.316;2022-11-15T07:20:12;97683.75;;;4.76;100.00
2785;BME280;57944;48.722;9.316;2022-11-15T07:23:02;97676.00;;;4.85;100.00
2785;BME280;57944;48.722;9.316;2022-11-15T07:25:51;97676.59;;;4.96;100.00
2785;BME280;57944;48.722;9.316;2022-11-15T07:28:40;97682.34;;;5.21;100.00
2785;BME280;57944;48.722;9.316;2022-11-15T07:31:29;97687.03;;;5.32;100.00
2785;BME280;57944;48.722;9.316;2022-11-15T07:34:20;97678.91;;;5.45;100.00
2785;BME280;57944;48.722;9.316;2022-11-15T07:37:10;97674.88;;;5.58;100.00
2785;BME280;57944;48.722;9.316;2022-11-15T07:39:59;97676.34;;;5.76;100.00
2785;BME280;57944;48.722;9.316;2022-11-15T07:42:48;97672.88;;;5.77;100.00
2785;BME280;57944;48.722;9.316;2022-11-15T07:45:44;97664.63;;;5.83;100.00
2785;BME280;57944;48.722;9.316;2022-11-15T07:48:33;97665.41;;;5.83;100.00
2785;BME280;57944;48.722;9.316;2022-11-15T07:51:32;97663.13;;;5.97;100.00
2785;BME280;57944;48.722;9.316;2022-11-15T07:54:20;97665.22;;;6.46;100.00
2785;BME280;57944;48.722;9.316;2022-11-15T07:57:09;97654.91;;;7.07;100.00
2785;BME280;57944;48.722;9.316;2022-11-15T07:59:58;97644.84;;;7.50;100.00
2785;BME280;57944;48.722;9.316;2022-11-15T08:02:47;97648.72;;;7.89;100.00
2785;BME280;57944;48.722;9.316;2022-11-15T08:05:39;97649.09;;;8.14;100.00
2785;BME280;57944;48.722;9.316;2022-11-15T08:08:31;97646.69;;;8.34;100.00
2785;BME280;57944;48.722;9.316;2022-11-15T08:11:19;97644.84;;;8.49;100.00
2785;BME280;57944;48.722;9.316;2022-11-15T08:14:08;97645.31;;;8.59;100.00
2785;BME280;57944;48.722;9.316;2022-11-15T08:16:57;97647.66;;;8.61;100.00
2785;BME280;57944;48.722;9.316;2022-11-15T08:19:46;97643.41;;;8.68;100.00
2785;BME280;57944;48.722;9.316;2022-11-15T08:22:34;97634.69;;;8.84;100.00
2785;BME280;57944;48.722;9.316;2022-11-15T08:25:27;97641.88;;;8.73;100.00
2785;BME280;57944;48.722;9.316;2022-11-15T08:28:17;97631.94;;;8.79;100.00
2785;BME280;57944;48.722;9.316;2022-11-15T08:31:12;97637.53;;;9.15;100.00
2785;BME280;57944;48.722;9.316;2022-11-15T08:34:03;97633.72;;;9.46;100.00
2785;BME280;57944;48.722;9.316;2022-11-15T08:36:52;97633.53;;;9.54;100.00
2785;BME280;57944;48.722;9.316;2022-11-15T08:39:41;97628.84;;;9.51;100.00
2785;BME280;57944;48.722;9.316;2022-11-15T08:42:32;97622.19;;;9.57;100.00
2785;BME280;57944;48.722;9.316;2022-11-15T08:45:21;97620.63;;;9.62;100.00
2785;BME280;57944;48.722;9.316;2022-11-15T08:48:10;97625.72;;;9.76;100.00
2785;BME280;57944;48.722;9.316;2022-11-15T08:50:59;97625.75;;;9.89;100.00
2785;BME280;57944;48.722;9.316;2022-11-15T08:53:48;97631.03;;;9.88;100.00
2785;BME280;57944;48.722;9.316;2022-11-15T08:56:37;97620.25;;;9.92;100.00
2785;BME280;57944;48.722;9.316;2022-11-15T08:59:28;97611.63;;;10.06;100.00
2785;BME280;57944;48.722;9.316;2022-11-15T09:02:17;97608.28;;;10.19;100.00
2785;BME280;57944;48.722;9.316;2022-11-15T09:05:08;97609.66;;;10.15;100.00
2785;BME280;57944;48.722;9.316;2022-11-15T09:07:56;97606.34;;;10.15;100.00
2785;BME280;57944;48.722;9.316;2022-11-15T09:10:54;97601.44;;;10.40;100.00
2785;BME280;57944;48.722;9.316;2022-11-15T09:13:43;97603.72;;;10.55;100.00
2785;BME280;57944;48.722;9.316;2022-11-15T09:16:34;97597.88;;;10.41;100.00
2785;BME280;57944;48.722;9.316;2022-11-15T09:19:23;97601.59;;;10.51;100.00
2785;BME280;57944;48.722;9.316;2022-11-15T09:22:11;97599.34;;;10.75;100.00
2785;BME280;57944;48.722;9.316;2022-11-15T09:25:00;97594.97;;;10.95;100.00
2785;BME280;57944;48.722;9.316;2022-11-15T09:27:54;97595.97;;;11.26;100.00
2785;BME280;57944;48.722;9.316;2022-11-15T09:30:43;97591.84;;;11.57;100.00
2785;BME280;57944;48.722;9.316;2022-11-15T09:33:35;97603.44;;;12.10;100.00
2785;BME280;57944;48.722;9.316;2022-11-15T09:36:23;97598.00;;;12.43;100.00
2785;BME280;57944;48.722;9.316;2022-11-15T09:39:12;97597.69;;;12.88;100.00
2785;BME280;57944;48.722;9.316;2022-11-15T09:42:23;97591.13;;;13.22;100.00
2785;BME280;57944;48.722;9.316;2022-11-15T09:45:22;97584.53;;;13.33;100.00
2785;BME280;57944;48.722;9.316;2022-11-15T09:48:51;97590.38;;;13.22;100.00
2785;BME280;57944;48.722;9.316;2022-11-15T09:51:29;97588.94;;;13.26;100.00
2785;BME280;57944;48.722;9.316;2022-11-15T09:54:09;97584.53;;;13.33;100.00
2785;BME280;57944;48.722;9.316;2022-11-15T09:57:09;97577.63;;;13.33;100.00
2785;BME280;57944;48.722;9.316;2022-11-15T10:00:01;97576.22;;;13.37;100.00
2785;BME280;57944;48.722;9.316;2022-11-15T10:03:09;97574.88;;;13.35;100.00
2785;BME280;57944;48.722;9.316;2022-11-15T10:05:46;97561.63;;;13.38;100.00
2785;BME280;57944;48.722;9.316;2022-11-15T10:08:40;97568.53;;;13.49;100.00
2785;BME280;57944;48.722;9.316;2022-11-15T10:11:19;97567.41;;;13.45;100.00
2785;BME280;57944;48.722;9.316;2022-11-15T10:14:12;97572.13;;;13.95;100.00
2785;BME280;57944;48.722;9.316;2022-11-15T10:17:13;97564.72;;;14.34;100.00
2785;BME280;57944;48.722;9.316;2022-11-15T10:20:05;97557.03;;;14.86;100.00
2785;BME280;57944;48.722;9.316;2022-11-15T10:22:47;97556.81;;;15.33;100.00
2785;BME280;57944;48.722;9.316;2022-11-15T10:25:22;97554.63;;;15.93;100.00
2785;BME280;57944;48.722;9.316;2022-11-15T10:27:57;97549.75;;;16.57;90.83
2785;BME280;57944;48.722;9.316;2022-11-15T10:30:35;97539.03;;;16.87;80.49
2785;BME280;57944;48.722;9.316;2022-11-15T10:33:24;97535.75;;;16.92;79.40
2785;BME280;57944;48.722;9.316;2022-11-15T10:36:22;97534.56;;;16.78;73.33
2785;BME280;57944;48.722;9.316;2022-11-15T10:38:59;97527.69;;;16.61;76.43
2785;BME280;57944;48.722;9.316;2022-11-15T10:41:41;97526.72;;;16.45;83.47
2785;BME280;57944;48.722;9.316;2022-11-15T10:44:25;97523.44;;;16.50;81.47
2785;BME280;57944;48.722;9.316;2022-11-15T10:47:23;97520.69;;;16.79;81.23
2785;BME280;57944;48.722;9.316;2022-11-15T10:50:00;97514.41;;;17.29;78.09
2785;BME280;57944;48.722;9.316;2022-11-15T10:52:34;97510.28;;;17.65;74.65
2785;BME280;57944;48.722;9.316;2022-11-15T10:55:25;97516.94;;;17.98;77.95
2785;BME280;57944;48.722;9.316;2022-11-15T10:58:05;97515.19;;;18.14;73.61
2785;BME280;57944;48.722;9.316;2022-11-15T11:00:38;97506.16;;;18.12;72.37
2785;BME280;57944;48.722;9.316;2022-11-15T11:03:29;97519.78;;;18.02;68.25
2785;BME280;57944;48.722;9.316;2022-11-15T11:06:09;97502.03;;;18.05;68.55
2785;BME280;57944;48.722;9.316;2022-11-15T11:08:40;97503.50;;;17.96;63.19
2785;BME280;57944;48.722;9.316;2022-11-15T11:11:13;97505.34;;;16.89;79.18
2785;BME280;57944;48.722;9.316;2022-11-15T11:13:43;97497.81;;;17.14;71.33
2785;BME280;57944;48.722;9.316;2022-11-15T11:16:36;97500.44;;;17.19;73.03
2785;BME280;57944;48.722;9.316;2022-11-15T11:19:39;97495.16;;;17.04;71.30
2785;BME280;57944;48.722;9.316;2022-11-15T11:22:21;97492.16;;;16.85;74.73
2785;BME280;57944;48.722;9.316;2022-11-15T11:25:08;97491.38;;;16.85;74.34
2785;BME280;57944;48.722;9.316;2022-11-15T11:28:03;97493.19;;;16.84;76.86
2785;BME280;57944;48.722;9.316;2022-11-15T11:30:48;97492.78;;;16.70;77.96
2785;BME280;57944;48.722;9.316;2022-11-15T11:33:25;97487.13;;;16.73;80.05
2785;BME280;57944;48.722;9.316;2022-11-15T11:36:15;97487.31;;;16.40;97.08
2785;BME280;57944;48.722;9.316;2022-11-15T11:39:19;97483.28;;;16.49;88.38
2785;BME280;57944;48.722;9.316;2022-11-15T11:42:02;97475.06;;;16.47;90.88
2785;BME280;57944;48.722;9.316;2022-11-15T11:44:49;97472.84;;;16.34;85.28
2785;BME280;57944;48.722;9.316;2022-11-15T11:47:24;97466.19;;;16.38;82.64
2785;BME280;57944;48.722;9.316;2022-11-15T11:50:01;97456.19;;;16.36;84.30
2785;BME280;57944;48.722;9.316;2022-11-15T11:52:42;97449.28;;;16.42;82.46
2785;BME280;57944;48.722;9.316;2022-11-15T11:55:19;97449.09;;;16.75;84.29
2785;BME280;57944;48.722;9.316;2022-11-15T11:57:58;97451.34;;;16.94;82.92
2785;BME280;57944;48.722;9.316;2022-11-15T12:00:39;97444.28;;;17.16;81.44
2785;BME280;57944;48.722;9.316;2022-11-15T12:03:19;97448.03;;;17.41;84.04
2785;BME280;57944;48.722;9.316;2022-11-15T12:05:57;97438.09;;;17.60;76.71
2785;BME280;57944;48.722;9.316;2022-11-15T12:08:38;97433.06;;;17.85;74.70
2785;BME280;57944;48.722;9.316;2022-11-15T12:11:19;97432.88;;;17.97;72.82
2785;BME280;57944;48.722;9.316;2022-11-15T12:13:58;97431.28;;;17.86;75.20
2785;BME280;57944;48.722;9.316;2022-11-15T12:16:33;97430.25;;;17.87;73.80
2785;BME280;57944;48.722;9.316;2022-11-15T12:19:04;97424.00;;;17.78;74.91
2785;BME280;57944;48.722;9.316;2022-11-15T12:21:42;97419.28;;;17.59;75.85
2785;BME280;57944;48.722;9.316;2022-11-15T12:24:20;97417.91;;;17.41;77.70
2785;BME280;57944;48.722;9.316;2022-11-15T12:26:57;97414.19;;;17.22;75.84
2785;BME280;57944;48.722;9.316;2022-11-15T12:29:36;97409.59;;;16.92;77.16
2785;BME280;57944;48.722;9.316;2022-11-15T12:32:25;97405.81;;;16.72;82.28
2785;BME280;57944;48.722;9.316;2022-11-15T12:34:58;97400.84;;;16.61;82.08
2785;BME280;57944;48.722;9.316;2022-11-15T12:37:53;97414.06;;;16.42;82.66
2785;BME280;57944;48.722;9.316;2022-11-15T12:40:37;97414.25;;;16.36;84.80
2785;BME280;57944;48.722;9.316;2022-11-15T12:43:41;97404.00;;;16.41;83.33
2785;BME280;57944;48.722;9.316;2022-11-15T12:46:21;97402.22;;;16.41;86.80
2785;BME280;57944;48.722;9.316;2022-11-15T12:48:57;97403.97;;;16.36;84.94
2785;BME280;57944;48.722;9.316;2022-11-15T12:52:06;97409.50;;;16.22;89.14
2785;BME280;57944;48.722;9.316;2022-11-15T12:57:41;97401.78;;;16.22;87.82
2785;BME280;57944;48.722;9.316;2022-11-15T13:00:44;97395.03;;;16.16;89.24
2785;BME280;57944;48.722;9.316;2022-11-15T13:03:25;97397.22;;;16.02;93.82
2785;BME280;57944;48.722;9.316;2022-11-15T13:06:42;97394.22;;;15.89;93.16
2785;BME280;57944;48.722;9.316;2022-11-15T13:12:56;97376.44;;;15.43;97.14
2785;BME280;57944;48.722;9.316;2022-11-15T13:16:01;97383.19;;;15.49;97.75
2785;BME280;57944;48.722;9.316;2022-11-15T13:18:36;97370.22;;;15.39;95.61
2785;BME280;57944;48.722;9.316;2022-11-15T13:21:23;97370.53;;;15.42;95.04
2785;BME280;57944;48.722;9.316;2022-11-15T13:24:16;97363.78;;;15.36;96.68
2785;BME280;57944;48.722;9.316;2022-11-15T13:26:46;97361.09;;;15.48;96.89
2785;BME280;57944;48.722;9.316;2022-11-15T13:29:18;97358.78;;;15.47;95.34
2785;BME280;57944;48.722;9.316;2022-11-15T13:31:49;97350.28;;;15.24;97.33
2785;BME280;57944;48.722;9.316;2022-11-15T13:34:31;97349.75;;;15.05;99.85
2785;BME280;57944;48.722;9.316;2022-11-15T13:37:30;97353.50;;;14.81;100.00
2785;BME280;57944;48.722;9.316;2022-11-15T13:40:24;97349.31;;;14.91;98.07
2785;BME280;57944;48.722;9.316;2022-11-15T13:42:57;97340.13;;;14.95;99.50
2785;BME280;57944;48.722;9.316;2022-11-15T13:45:28;97337.34;;;14.80;100.00
2785;BME280;57944;48.722;9.316;2022-11-15T13:47:58;97332.78;;;14.82;100.00
2785;BME280;57944;48.722;9.316;2022-11-15T13:50:33;97323.38;;;14.71;100.00
2785;BME280;57944;48.722;9.316;2022-11-15T13:53:05;97320.16;;;14.81;100.00
2785;BME280;57944;48.722;9.316;2022-11-15T13:55:38;97320.25;;;14.86;100.00
2785;BME280;57944;48.722;9.316;2022-11-15T13:58:09;97313.09;;;14.71;100.00
2785;BME280;57944;48.722;9.316;2022-11-15T14:00:42;97306.66;;;14.68;100.00
2785;BME280;57944;48.722;9.316;2022-11-15T14:03:22;97304.31;;;14.67;100.00
2785;BME280;57944;48.722;9.316;2022-11-15T14:06:08;97299.56;;;14.59;100.00
2785;BME280;57944;48.722;9.316;2022-11-15T14:08:41;97296.00;;;14.60;100.00
2785;BME280;57944;48.722;9.316;2022-11-15T14:11:19;97288.69;;;14.51;100.00
2785;BME280;57944;48.722;9.316;2022-11-15T14:14:12;97297.69;;;14.37;100.00
2785;BME280;57944;48.722;9.316;2022-11-15T14:16:45;97287.88;;;14.17;100.00
2785;BME280;57944;48.722;9.316;2022-11-15T14:19:36;97283.09;;;13.92;100.00
2785;BME280;57944;48.722;9.316;2022-11-15T14:22:20;97280.97;;;13.72;100.00
2785;BME280;57944;48.722;9.316;2022-11-15T14:25:15;97274.78;;;13.56;100.00
2785;BME280;57944;48.722;9.316;2022-11-15T14:28:11;97267.50;;;13.36;100.00
2785;BME280;57944;48.722;9.316;2022-11-15T14:30:44;97257.72;;;13.22;100.00
2785;BME280;57944;48.722;9.316;2022-11-15T14:33:24;97251.75;;;13.16;100.00
2785;BME280;57944;48.722;9.316;2022-11-15T14:36:02;97240.88;;;12.85;100.00
2785;BME280;57944;48.722;9.316;2022-11-15T14:38:33;97247.78;;;12.61;100.00
2785;BME280;57944;48.722;9.316;2022-11-15T14:41:03;97243.91;;;12.47;100.00
2785;BME280;57944;48.722;9.316;2022-11-15T14:43:37;97249.00;;;12.47;100.00
2785;BME280;57944;48.722;9.316;2022-11-15T14:46:07;97247.78;;;12.38;100.00
2785;BME280;57944;48.722;9.316;2022-11-15T14:48:37;97248.41;;;12.10;100.00
2785;BME280;57944;48.722;9.316;2022-11-15T14:51:13;97242.41;;;12.04;100.00
2785;BME280;57944;48.722;9.316;2022-11-15T14:53:45;97248.31;;;12.16;100.00
2785;BME280;57944;48.722;9.316;2022-11-15T14:56:15;97234.78;;;12.27;100.00
2785;BME280;57944;48.722;9.316;2022-11-15T14:58:48;97244.53;;;12.30;100.00
2785;BME280;57944;48.722;9.316;2022-11-15T15:01:22;97238.44;;;12.32;100.00
2785;BME280;57944;48.722;9.316;2022-11-15T15:03:53;97230.09;;;12.36;100.00
2785;BME280;57944;48.722;9.316;2022-11-15T15:06:26;97229.34;;;12.36;100.00
2785;BME280;57944;48.722;9.316;2022-11-15T15:08:57;97223.34;;;12.30;100.00
2785;BME280;57944;48.722;9.316;2022-11-15T15:11:30;97226.53;;;12.25;100.00
2785;BME280;57944;48.722;9.316;2022-11-15T15:14:03;97231.88;;;12.24;100.00